TLPC/SLU METAR and TAF weather

Enter ICAO airport designator
Station Type Date Time Source
TLPC METAR 2020/07/06 00:00 UTC NOAA

TLPC 060000Z 08007KT 9999 BKN023 28/24 Q1014 NOSIG


Station Type Date Time Source
TLPC Decoded METAR 2020/07/06 00:00 UTC NOAA

Vigie, Saint Lucia (TLPC) 14-01N 061-00W 2M
Jul 05, 2020 - 08:00 PM EDT / 2020.07.06 0000 UTC
Wind: from the E (080 degrees) at 8 MPH (7 KT):0
Visibility: greater than 7 mile(s):0
Sky conditions: mostly cloudy
Temperature: 82 F (28 C)
Dew Point: 75 F (24 C)
Relative Humidity: 78%
Pressure (altimeter): 29.94 in. Hg (1014 hPa)
ob: TLPC 060000Z 08007KT 9999 BKN023 28/24 Q1014 NOSIG
cycle: 0

Station Type Date Time Source
TLPC TAF 2020/07/06 06:03 UTC NOAA

TAF TLPC 060500Z 0606/0706 09012G25KT 9999 SCT024
TEMPO 0618/0624 5000 SHRA FEW016CB BKN018 BKN040
TEMPO 0700/0706 3000 TSRA FEW006 BKN014CB BKN038

Example: see airport list